Share

Topawa, AZ (85639)

RAWS SELLS AZ US (MQSEA3) Elev 2262 ft | 31.91 °N, 111.90 °W | Change Station

Current weather conditions updated 43 minutes ago

Clear
Clear
81 °F
Feels Like 79 °F
N
10
Wind Variable Wind from South
Gusts 18.0 mph
Sunrise 5:56 AM
Sunset 6:57 PM
Moon Waning Gibbous

Today is forecast to be Warmer than yesterday.

Pressure 29.99 in
Visibility 10.0 miles
Clouds Clear
Heat Index 79 °F
Dew Point 26 °F
Humidity 13%
Rainfall 0.00 in
Snow Depth Not available.
UV 10 out of 16
Pollen 8.90 out of 12
Air Quality Not available.
Flu Activity Local Activity
METAR KRYN 171750Z 04003KT 10SM CLR 27/M03 A2999

More Conditions Fewer Conditions

Pressure 29.99 in
Visibility 10.0 miles
Clouds Clear
Heat Index 79 °F
Dew Point 26 °F
Humidity 13%
Rainfall 0.00 in
Snow Depth Not available.
UV 10 out of 16
Pollen 8.90 out of 12
Air Quality Not available.
Flu Activity Local Activity
METAR KRYN 171750Z 04003KT 10SM CLR 27/M03 A2999

More Conditions Fewer Conditions

10-Day Forecast

Almanac

Astronomy

Apr. 17, 2014 Rise Set
Actual Time 5:56 AM MST 6:57 PM MST
Civil Twilight 5:31 AM MST 7:23 PM MST
Nautical Twilight 5:01 AM MST 7:52 PM MST
Astronomical Twilight 4:30 AM MST 8:23 PM MST
Moon 9:39 PM MST 7:37 AM MST
Length of Visible Light 13h 51m
Length of Day
13h 01m
Tomorrow will be 1m 49s longer.
Waning Gibbous, 93% of the Moon is Illuminated
Today
Waning Gibbous
Apr 22
Last Quarter
Apr 29
New
May 6
First Quarter
May 14
Full

Today's Extremes

State Highs State Lows

Community

  • New Day
    New Day
  • Lake Michigan Sunrise
    Lake Michigan Sunrise
  • sunset from izmir, narlıdere
    sunset from izmir, narlıdere
  • oregon cherry
    oregon cherry
  • Sunset over the Bay
    Sunset over the Bay

WunderPhotos

Upload Photos

1,702,075 photos uploaded!

Nearby

Snow Depth

Station Depth Elevation
Promontory 0 in 7930 ft
Baker Butte 0 in 7300 ft
Heber 0 in 7640 ft
Happy Jack 0 in 7630 ft
Snowslide Canyon 8 in 9730 ft

Coastal Water Temperatures

Place Temperature
No Stations Reporting

Earthquake Activity

City Distance Mag. Time & Date
No recent earthquake activity has been reported nearby.
Minimum magnitude displayed is 2.5.

Nearby Weather Stations

Station Location Temp. Heat Index Dew Point Humidity Wind Precip. Elev Updated Type
RAWS SELLS AZ, Sells, AZ 81 °F 79 °F 26 °F 13% South  at  10 mph 0.00 in / hr 2262 ft 10:14 AM MST MADIS
HCN AMADO 23 W AZ , Arivaca, AZ 78 °F 76 °F - - North  at  - 0.00 in / hr 3269 ft 10:25 AM MST MADIS
RAWS SASABE AZ, Arivaca, AZ 79 °F 78 °F 24 °F 13% SSW  at  5 mph 0.00 in / hr 3500 ft 10:05 AM MST MADIS
Kitt Peak (MDM Obs), Sells, AZ 68.8 °F - 19 °F 15% SE  at  8.0 mph 0.00 in / hr 6135 ft 10:57 AM MST Normal

Show More Stations Show Fewer Stations

What do you think?

We're not finished. Please let us know what you like, what you don't like, and what you are still missing.